sensor_id;sensor_type;location;lat;lon;timestamp;pressure;altitude;pressure_sealevel;temperature;humidity
27202;BME280;14717;46.924;15.474;2023-04-25T00:00:28;97078.41;;;10.37;100.00
27202;BME280;14717;46.924;15.474;2023-04-25T00:02:54;97083.47;;;10.43;100.00
27202;BME280;14717;46.924;15.474;2023-04-25T00:05:22;97078.66;;;10.49;100.00
27202;BME280;14717;46.924;15.474;2023-04-25T00:07:48;97086.25;;;10.30;100.00
27202;BME280;14717;46.924;15.474;2023-04-25T00:10:15;97075.63;;;10.37;100.00
27202;BME280;14717;46.924;15.474;2023-04-25T00:12:41;97073.19;;;10.35;100.00
27202;BME280;14717;46.924;15.474;2023-04-25T00:15:07;97076.06;;;10.30;100.00
27202;BME280;14717;46.924;15.474;2023-04-25T00:17:33;97076.41;;;10.16;100.00
27202;BME280;14717;46.924;15.474;2023-04-25T00:20:00;97075.06;;;10.13;100.00
27202;BME280;14717;46.924;15.474;2023-04-25T00:22:25;97073.41;;;10.25;100.00
27202;BME280;14717;46.924;15.474;2023-04-25T00:24:50;97069.72;;;10.17;100.00
27202;BME280;14717;46.924;15.474;2023-04-25T00:27:18;97069.66;;;10.08;100.00
27202;BME280;14717;46.924;15.474;2023-04-25T00:29:43;97076.19;;;10.12;100.00
27202;BME280;14717;46.924;15.474;2023-04-25T00:32:09;97067.69;;;10.22;100.00
27202;BME280;14717;46.924;15.474;2023-04-25T00:34:34;97073.53;;;10.07;100.00
27202;BME280;14717;46.924;15.474;2023-04-25T00:37:00;97067.09;;;9.98;100.00
27202;BME280;14717;46.924;15.474;2023-04-25T00:39:27;97053.09;;;10.08;100.00
27202;BME280;14717;46.924;15.474;2023-04-25T00:41:54;97060.44;;;10.13;100.00
27202;BME280;14717;46.924;15.474;2023-04-25T00:44:20;97060.84;;;10.19;100.00
27202;BME280;14717;46.924;15.474;2023-04-25T00:46:47;97062.28;;;10.17;100.00
27202;BME280;14717;46.924;15.474;2023-04-25T00:49:12;97057.59;;;10.04;100.00
27202;BME280;14717;46.924;15.474;2023-04-25T00:51:40;97065.34;;;10.02;100.00
27202;BME280;14717;46.924;15.474;2023-04-25T00:54:06;97054.53;;;10.06;100.00
27202;BME280;14717;46.924;15.474;2023-04-25T00:56:32;97059.00;;;10.15;100.00
27202;BME280;14717;46.924;15.474;2023-04-25T00:58:57;97053.78;;;10.14;100.00
27202;BME280;14717;46.924;15.474;2023-04-25T01:01:23;97051.91;;;10.01;100.00
27202;BME280;14717;46.924;15.474;2023-04-25T01:03:49;97053.31;;;9.98;100.00
27202;BME280;14717;46.924;15.474;2023-04-25T01:06:15;97043.81;;;9.91;100.00
27202;BME280;14717;46.924;15.474;2023-04-25T01:08:41;97044.09;;;9.89;100.00
27202;BME280;14717;46.924;15.474;2023-04-25T01:11:06;97046.88;;;9.89;100.00
27202;BME280;14717;46.924;15.474;2023-04-25T01:13:32;97044.31;;;9.79;100.00
27202;BME280;14717;46.924;15.474;2023-04-25T01:15:58;97059.94;;;9.71;100.00
27202;BME280;14717;46.924;15.474;2023-04-25T01:18:24;97050.25;;;9.60;100.00
27202;BME280;14717;46.924;15.474;2023-04-25T01:20:51;97052.06;;;9.51;100.00
27202;BME280;14717;46.924;15.474;2023-04-25T01:23:18;97052.38;;;9.49;100.00
27202;BME280;14717;46.924;15.474;2023-04-25T01:25:43;97069.63;;;9.41;100.00
27202;BME280;14717;46.924;15.474;2023-04-25T01:28:09;97059.34;;;9.47;100.00
27202;BME280;14717;46.924;15.474;2023-04-25T01:30:35;97059.72;;;9.40;100.00
27202;BME280;14717;46.924;15.474;2023-04-25T01:33:01;97057.97;;;9.31;100.00
27202;BME280;14717;46.924;15.474;2023-04-25T01:35:27;97063.28;;;9.28;100.00
27202;BME280;14717;46.924;15.474;2023-04-25T01:37:53;97066.13;;;9.23;100.00
27202;BME280;14717;46.924;15.474;2023-04-25T01:40:20;97063.28;;;9.28;100.00
27202;BME280;14717;46.924;15.474;2023-04-25T01:42:47;97069.19;;;9.21;100.00
27202;BME280;14717;46.924;15.474;2023-04-25T01:45:13;97063.09;;;9.24;100.00
27202;BME280;14717;46.924;15.474;2023-04-25T01:47:39;97074.47;;;9.04;100.00
27202;BME280;14717;46.924;15.474;2023-04-25T01:50:07;97065.09;;;9.05;100.00
27202;BME280;14717;46.924;15.474;2023-04-25T01:52:33;97071.03;;;9.12;100.00
27202;BME280;14717;46.924;15.474;2023-04-25T01:54:59;97068.78;;;9.14;100.00
27202;BME280;14717;46.924;15.474;2023-04-25T01:57:26;97069.56;;;9.01;100.00
27202;BME280;14717;46.924;15.474;2023-04-25T01:59:55;97061.78;;;8.90;100.00
27202;BME280;14717;46.924;15.474;2023-04-25T02:02:23;97074.91;;;8.80;100.00
27202;BME280;14717;46.924;15.474;2023-04-25T02:04:48;97073.34;;;8.74;100.00
27202;BME280;14717;46.924;15.474;2023-04-25T02:07:14;97079.75;;;8.51;100.00
27202;BME280;14717;46.924;15.474;2023-04-25T02:09:39;97073.75;;;8.49;100.00
27202;BME280;14717;46.924;15.474;2023-04-25T02:12:07;97079.25;;;8.49;100.00
27202;BME280;14717;46.924;15.474;2023-04-25T02:14:32;97085.81;;;8.35;100.00
27202;BME280;14717;46.924;15.474;2023-04-25T02:16:58;97082.44;;;8.19;100.00
27202;BME280;14717;46.924;15.474;2023-04-25T02:19:23;97073.16;;;8.34;100.00
27202;BME280;14717;46.924;15.474;2023-04-25T02:21:48;97086.63;;;8.35;100.00
27202;BME280;14717;46.924;15.474;2023-04-25T02:24:14;97083.44;;;8.05;100.00
27202;BME280;14717;46.924;15.474;2023-04-25T02:26:39;97068.28;;;8.07;100.00
27202;BME280;14717;46.924;15.474;2023-04-25T02:29:04;97082.81;;;8.13;100.00
27202;BME280;14717;46.924;15.474;2023-04-25T02:31:30;97079.88;;;8.04;100.00
27202;BME280;14717;46.924;15.474;2023-04-25T02:33:56;97077.16;;;8.23;100.00
27202;BME280;14717;46.924;15.474;2023-04-25T02:36:21;97087.09;;;8.01;100.00
27202;BME280;14717;46.924;15.474;2023-04-25T02:38:46;97086.88;;;7.97;100.00
27202;BME280;14717;46.924;15.474;2023-04-25T02:41:12;97083.22;;;8.02;100.00
27202;BME280;14717;46.924;15.474;2023-04-25T02:43:37;97080.94;;;8.08;100.00
27202;BME280;14717;46.924;15.474;2023-04-25T02:46:03;97085.91;;;8.06;100.00
27202;BME280;14717;46.924;15.474;2023-04-25T02:48:28;97080.84;;;7.95;100.00
27202;BME280;14717;46.924;15.474;2023-04-25T02:50:54;97091.38;;;7.88;100.00
27202;BME280;14717;46.924;15.474;2023-04-25T02:53:19;97087.94;;;7.78;100.00
27202;BME280;14717;46.924;15.474;2023-04-25T02:55:45;97090.34;;;7.84;100.00
27202;BME280;14717;46.924;15.474;2023-04-25T02:58:10;97085.72;;;7.80;100.00
27202;BME280;14717;46.924;15.474;2023-04-25T03:00:36;97094.97;;;7.89;100.00
27202;BME280;14717;46.924;15.474;2023-04-25T03:03:01;97098.31;;;7.86;100.00
27202;BME280;14717;46.924;15.474;2023-04-25T03:05:26;97092.09;;;7.99;100.00
27202;BME280;14717;46.924;15.474;2023-04-25T03:07:52;97090.63;;;7.83;100.00
27202;BME280;14717;46.924;15.474;2023-04-25T03:10:17;97112.03;;;7.86;100.00
27202;BME280;14717;46.924;15.474;2023-04-25T03:12:42;97107.13;;;7.83;100.00
27202;BME280;14717;46.924;15.474;2023-04-25T03:15:08;97107.25;;;7.73;100.00
27202;BME280;14717;46.924;15.474;2023-04-25T03:17:33;97102.50;;;7.78;100.00
27202;BME280;14717;46.924;15.474;2023-04-25T03:19:59;97097.09;;;7.92;100.00
27202;BME280;14717;46.924;15.474;2023-04-25T03:22:24;97097.53;;;7.80;100.00
27202;BME280;14717;46.924;15.474;2023-04-25T03:24:50;97101.25;;;7.71;100.00
27202;BME280;14717;46.924;15.474;2023-04-25T03:27:16;97101.53;;;7.46;100.00
27202;BME280;14717;46.924;15.474;2023-04-25T03:29:41;97110.25;;;7.53;100.00
27202;BME280;14717;46.924;15.474;2023-04-25T03:32:07;97108.34;;;7.72;100.00
27202;BME280;14717;46.924;15.474;2023-04-25T03:34:32;97101.69;;;7.78;100.00
27202;BME280;14717;46.924;15.474;2023-04-25T03:36:57;97102.78;;;7.77;100.00
27202;BME280;14717;46.924;15.474;2023-04-25T03:39:24;97101.81;;;7.68;100.00
27202;BME280;14717;46.924;15.474;2023-04-25T03:41:49;97097.91;;;7.74;100.00
27202;BME280;14717;46.924;15.474;2023-04-25T03:44:15;97092.56;;;7.82;100.00
27202;BME280;14717;46.924;15.474;2023-04-25T03:46:40;97101.84;;;7.86;100.00
27202;BME280;14717;46.924;15.474;2023-04-25T03:49:05;97103.16;;;7.70;100.00
27202;BME280;14717;46.924;15.474;2023-04-25T03:51:31;97098.44;;;7.76;100.00
27202;BME280;14717;46.924;15.474;2023-04-25T03:53:57;97090.00;;;7.67;100.00
27202;BME280;14717;46.924;15.474;2023-04-25T03:56:23;97091.81;;;7.54;100.00
27202;BME280;14717;46.924;15.474;2023-04-25T03:58:48;97096.50;;;7.53;100.00
27202;BME280;14717;46.924;15.474;2023-04-25T04:01:14;97090.72;;;7.55;100.00
27202;BME280;14717;46.924;15.474;2023-04-25T04:03:39;97082.88;;;7.43;100.00
27202;BME280;14717;46.924;15.474;2023-04-25T04:06:06;97098.25;;;7.44;100.00
27202;BME280;14717;46.924;15.474;2023-04-25T04:08:32;97097.78;;;7.37;100.00
27202;BME280;14717;46.924;15.474;2023-04-25T04:10:58;97102.34;;;7.47;100.00
27202;BME280;14717;46.924;15.474;2023-04-25T04:13:26;97103.69;;;7.49;100.00
27202;BME280;14717;46.924;15.474;2023-04-25T04:15:51;97105.66;;;7.20;100.00
27202;BME280;14717;46.924;15.474;2023-04-25T04:18:17;97099.63;;;7.19;100.00
27202;BME280;14717;46.924;15.474;2023-04-25T04:20:42;97113.47;;;7.09;100.00
27202;BME280;14717;46.924;15.474;2023-04-25T04:23:07;97107.31;;;7.21;100.00
27202;BME280;14717;46.924;15.474;2023-04-25T04:25:33;97110.56;;;7.23;100.00
27202;BME280;14717;46.924;15.474;2023-04-25T04:27:59;97107.53;;;6.97;100.00
27202;BME280;14717;46.924;15.474;2023-04-25T04:30:26;97109.16;;;6.98;100.00
27202;BME280;14717;46.924;15.474;2023-04-25T04:32:55;97114.50;;;7.13;100.00
27202;BME280;14717;46.924;15.474;2023-04-25T04:35:21;97108.28;;;7.30;100.00
27202;BME280;14717;46.924;15.474;2023-04-25T04:37:46;97119.53;;;7.06;100.00
27202;BME280;14717;46.924;15.474;2023-04-25T04:40:13;97125.09;;;6.96;100.00
27202;BME280;14717;46.924;15.474;2023-04-25T04:42:41;97115.59;;;6.83;100.00
27202;BME280;14717;46.924;15.474;2023-04-25T04:45:07;97129.03;;;6.85;100.00
27202;BME280;14717;46.924;15.474;2023-04-25T04:47:32;97128.56;;;6.78;100.00
27202;BME280;14717;46.924;15.474;2023-04-25T04:49:58;97126.28;;;6.85;100.00
27202;BME280;14717;46.924;15.474;2023-04-25T04:52:24;97130.69;;;6.86;100.00
27202;BME280;14717;46.924;15.474;2023-04-25T04:54:49;97128.56;;;7.06;100.00
27202;BME280;14717;46.924;15.474;2023-04-25T04:57:15;97118.28;;;7.21;100.00
27202;BME280;14717;46.924;15.474;2023-04-25T04:59:41;97105.16;;;7.42;100.00
27202;BME280;14717;46.924;15.474;2023-04-25T05:02:07;97115.16;;;7.56;100.00
27202;BME280;14717;46.924;15.474;2023-04-25T05:04:32;97110.06;;;7.68;100.00
27202;BME280;14717;46.924;15.474;2023-04-25T05:06:58;97105.91;;;7.70;100.00
27202;BME280;14717;46.924;15.474;2023-04-25T05:09:23;97108.13;;;7.68;100.00
27202;BME280;14717;46.924;15.474;2023-04-25T05:11:51;97108.41;;;7.67;100.00
27202;BME280;14717;46.924;15.474;2023-04-25T05:14:17;97101.13;;;7.81;100.00
27202;BME280;14717;46.924;15.474;2023-04-25T05:16:43;97107.47;;;7.76;100.00
27202;BME280;14717;46.924;15.474;2023-04-25T05:19:08;97110.13;;;7.63;100.00
27202;BME280;14717;46.924;15.474;2023-04-25T05:21:34;97110.00;;;7.73;100.00
27202;BME280;14717;46.924;15.474;2023-04-25T05:24:00;97116.53;;;7.77;100.00
27202;BME280;14717;46.924;15.474;2023-04-25T05:26:25;97108.13;;;7.45;100.00
27202;BME280;14717;46.924;15.474;2023-04-25T05:28:51;97102.41;;;7.65;100.00
27202;BME280;14717;46.924;15.474;2023-04-25T05:31:16;97106.63;;;7.81;100.00
27202;BME280;14717;46.924;15.474;2023-04-25T05:33:41;97103.28;;;7.84;100.00
27202;BME280;14717;46.924;15.474;2023-04-25T05:36:07;97100.75;;;7.87;100.00
27202;BME280;14717;46.924;15.474;2023-04-25T05:38:33;97104.47;;;7.96;100.00
27202;BME280;14717;46.924;15.474;2023-04-25T05:40:58;97098.84;;;8.06;100.00
27202;BME280;14717;46.924;15.474;2023-04-25T05:43:23;97103.94;;;8.17;100.00
27202;BME280;14717;46.924;15.474;2023-04-25T05:45:49;97106.78;;;8.31;100.00
27202;BME280;14717;46.924;15.474;2023-04-25T05:48:14;97099.09;;;8.46;100.00
27202;BME280;14717;46.924;15.474;2023-04-25T05:50:40;97101.19;;;8.54;100.00
27202;BME280;14717;46.924;15.474;2023-04-25T05:53:05;97097.78;;;8.62;100.00
27202;BME280;14717;46.924;15.474;2023-04-25T05:55:31;97110.03;;;8.33;100.00
27202;BME280;14717;46.924;15.474;2023-04-25T05:57:56;97103.44;;;8.52;100.00
27202;BME280;14717;46.924;15.474;2023-04-25T06:00:22;97098.78;;;8.66;100.00
27202;BME280;14717;46.924;15.474;2023-04-25T06:02:48;97100.41;;;8.85;100.00
27202;BME280;14717;46.924;15.474;2023-04-25T06:05:13;97107.59;;;8.68;99.61
27202;BME280;14717;46.924;15.474;2023-04-25T06:07:39;97107.22;;;8.74;100.00
27202;BME280;14717;46.924;15.474;2023-04-25T06:10:05;97109.25;;;8.82;100.00
27202;BME280;14717;46.924;15.474;2023-04-25T06:12:32;97101.31;;;8.81;99.04
27202;BME280;14717;46.924;15.474;2023-04-25T06:14:58;97102.81;;;9.05;98.51
27202;BME280;14717;46.924;15.474;2023-04-25T06:17:23;97097.31;;;9.05;97.04
27202;BME280;14717;46.924;15.474;2023-04-25T06:19:49;97098.00;;;9.29;97.95
27202;BME280;14717;46.924;15.474;2023-04-25T06:22:14;97096.09;;;9.56;96.51
27202;BME280;14717;46.924;15.474;2023-04-25T06:24:40;97091.56;;;9.46;94.86
27202;BME280;14717;46.924;15.474;2023-04-25T06:27:05;97091.06;;;9.58;98.44
27202;BME280;14717;46.924;15.474;2023-04-25T06:29:30;97096.09;;;9.56;98.50
27202;BME280;14717;46.924;15.474;2023-04-25T06:31:56;97095.28;;;9.69;97.93
27202;BME280;14717;46.924;15.474;2023-04-25T06:34:22;97093.22;;;9.61;96.74
27202;BME280;14717;46.924;15.474;2023-04-25T06:36:47;97083.53;;;9.50;95.71
27202;BME280;14717;46.924;15.474;2023-04-25T06:39:13;97074.34;;;10.08;96.75
27202;BME280;14717;46.924;15.474;2023-04-25T06:41:38;97070.66;;;10.25;90.96
27202;BME280;14717;46.924;15.474;2023-04-25T06:44:03;97069.72;;;10.65;90.57
27202;BME280;14717;46.924;15.474;2023-04-25T06:46:29;97068.38;;;10.84;86.78
27202;BME280;14717;46.924;15.474;2023-04-25T06:48:54;97058.78;;;11.03;86.34
27202;BME280;14717;46.924;15.474;2023-04-25T06:51:20;97056.94;;;11.21;86.70
27202;BME280;14717;46.924;15.474;2023-04-25T06:53:45;97051.25;;;11.48;86.89
27202;BME280;14717;46.924;15.474;2023-04-25T06:56:11;97051.75;;;11.49;87.86
27202;BME280;14717;46.924;15.474;2023-04-25T06:58:36;97044.06;;;11.77;84.10
27202;BME280;14717;46.924;15.474;2023-04-25T07:01:01;97049.19;;;11.61;84.99
27202;BME280;14717;46.924;15.474;2023-04-25T07:03:27;97052.56;;;10.98;82.86
27202;BME280;14717;46.924;15.474;2023-04-25T07:05:52;97047.78;;;11.12;84.12
27202;BME280;14717;46.924;15.474;2023-04-25T07:08:18;97045.00;;;11.12;82.97
27202;BME280;14717;46.924;15.474;2023-04-25T07:10:43;97043.34;;;11.33;76.13
27202;BME280;14717;46.924;15.474;2023-04-25T07:13:08;97044.25;;;11.50;76.53
27202;BME280;14717;46.924;15.474;2023-04-25T07:15:34;97033.97;;;11.81;72.04
27202;BME280;14717;46.924;15.474;2023-04-25T07:17:59;97024.19;;;11.75;70.32
27202;BME280;14717;46.924;15.474;2023-04-25T07:20:25;97015.97;;;12.00;69.20
27202;BME280;14717;46.924;15.474;2023-04-25T07:22:52;97016.84;;;12.42;71.88
27202;BME280;14717;46.924;15.474;2023-04-25T07:25:18;97013.72;;;12.19;68.46
27202;BME280;14717;46.924;15.474;2023-04-25T07:27:43;97015.06;;;12.38;65.13
27202;BME280;14717;46.924;15.474;2023-04-25T07:30:09;97009.84;;;12.36;69.13
27202;BME280;14717;46.924;15.474;2023-04-25T07:32:35;97003.00;;;12.59;62.26
27202;BME280;14717;46.924;15.474;2023-04-25T07:35:01;97012.75;;;13.07;64.58
27202;BME280;14717;46.924;15.474;2023-04-25T07:37:27;97016.16;;;13.29;63.18
27202;BME280;14717;46.924;15.474;2023-04-25T07:39:52;97031.38;;;13.52;60.46
27202;BME280;14717;46.924;15.474;2023-04-25T07:42:17;97031.69;;;13.67;63.92
27202;BME280;14717;46.924;15.474;2023-04-25T07:44:43;97036.81;;;13.86;62.59
27202;BME280;14717;46.924;15.474;2023-04-25T07:47:09;97037.22;;;14.04;64.34
27202;BME280;14717;46.924;15.474;2023-04-25T07:49:35;97034.94;;;14.35;65.45
27202;BME280;14717;46.924;15.474;2023-04-25T07:52:01;97028.66;;;14.47;64.05
27202;BME280;14717;46.924;15.474;2023-04-25T07:54:26;97025.13;;;14.58;65.04
27202;BME280;14717;46.924;15.474;2023-04-25T07:56:51;97020.16;;;14.63;63.71
27202;BME280;14717;46.924;15.474;2023-04-25T07:59:17;97027.47;;;14.47;67.61
27202;BME280;14717;46.924;15.474;2023-04-25T08:01:42;97021.97;;;14.39;64.64
27202;BME280;14717;46.924;15.474;2023-04-25T08:04:07;97029.72;;;14.54;63.79
27202;BME280;14717;46.924;15.474;2023-04-25T08:06:33;97024.31;;;14.78;67.09
27202;BME280;14717;46.924;15.474;2023-04-25T08:08:58;97028.63;;;15.07;65.35
27202;BME280;14717;46.924;15.474;2023-04-25T08:11:24;97023.25;;;15.55;64.27
27202;BME280;14717;46.924;15.474;2023-04-25T08:13:50;97024.69;;;15.96;61.74
27202;BME280;14717;46.924;15.474;2023-04-25T08:16:15;97029.09;;;15.85;56.91
27202;BME280;14717;46.924;15.474;2023-04-25T08:18:40;97022.59;;;15.81;51.04
27202;BME280;14717;46.924;15.474;2023-04-25T08:21:06;97026.78;;;15.87;46.98
27202;BME280;14717;46.924;15.474;2023-04-25T08:23:34;97030.03;;;16.13;46.74
27202;BME280;14717;46.924;15.474;2023-04-25T08:25:59;97030.03;;;16.01;51.75
27202;BME280;14717;46.924;15.474;2023-04-25T08:28:24;97036.84;;;15.68;41.72
27202;BME280;14717;46.924;15.474;2023-04-25T08:30:50;97034.19;;;15.83;41.82
27202;BME280;14717;46.924;15.474;2023-04-25T08:33:15;97032.25;;;15.84;44.31
27202;BME280;14717;46.924;15.474;2023-04-25T08:35:40;97026.78;;;16.11;43.48
27202;BME280;14717;46.924;15.474;2023-04-25T08:38:06;97031.56;;;16.34;43.92
27202;BME280;14717;46.924;15.474;2023-04-25T08:40:31;97023.56;;;16.33;43.50
27202;BME280;14717;46.924;15.474;2023-04-25T08:43:01;97035.06;;;16.43;44.19
27202;BME280;14717;46.924;15.474;2023-04-25T08:45:31;97026.09;;;16.62;45.44
27202;BME280;14717;46.924;15.474;2023-04-25T08:47:57;97026.19;;;16.65;44.26
27202;BME280;14717;46.924;15.474;2023-04-25T08:50:24;97029.84;;;16.42;41.71
27202;BME280;14717;46.924;15.474;2023-04-25T08:52:53;97028.41;;;16.48;39.85
27202;BME280;14717;46.924;15.474;2023-04-25T08:55:20;97015.31;;;16.48;41.54
27202;BME280;14717;46.924;15.474;2023-04-25T08:57:47;97029.47;;;15.84;39.29
27202;BME280;14717;46.924;15.474;2023-04-25T09:00:12;97025.25;;;15.66;43.65
27202;BME280;14717;46.924;15.474;2023-04-25T09:02:42;97025.16;;;15.86;42.69
27202;BME280;14717;46.924;15.474;2023-04-25T09:05:09;97018.91;;;16.25;41.71
27202;BME280;14717;46.924;15.474;2023-04-25T09:07:35;97028.88;;;16.14;42.83
27202;BME280;14717;46.924;15.474;2023-04-25T09:10:00;97025.88;;;16.19;39.61
27202;BME280;14717;46.924;15.474;2023-04-25T09:12:29;97023.78;;;16.28;43.93
27202;BME280;14717;46.924;15.474;2023-04-25T09:15:05;97027.06;;;16.42;44.76
27202;BME280;14717;46.924;15.474;2023-04-25T09:17:31;97025.03;;;16.54;40.01
27202;BME280;14717;46.924;15.474;2023-04-25T09:20:05;97018.94;;;16.88;40.32
27202;BME280;14717;46.924;15.474;2023-04-25T09:22:30;97023.88;;;17.06;39.58
27202;BME280;14717;46.924;15.474;2023-04-25T09:24:55;97025.50;;;17.19;37.82
27202;BME280;14717;46.924;15.474;2023-04-25T09:27:21;97027.06;;;16.81;38.30
27202;BME280;14717;46.924;15.474;2023-04-25T09:29:48;97030.03;;;16.61;37.66
27202;BME280;14717;46.924;15.474;2023-04-25T09:32:22;97028.91;;;16.89;39.21
27202;BME280;14717;46.924;15.474;2023-04-25T09:34:53;97022.44;;;17.12;37.79
27202;BME280;14717;46.924;15.474;2023-04-25T09:37:26;97020.53;;;16.89;36.56
27202;BME280;14717;46.924;15.474;2023-04-25T09:39:57;97024.72;;;16.95;38.39
27202;BME280;14717;46.924;15.474;2023-04-25T09:42:25;97030.16;;;17.03;36.17
27202;BME280;14717;46.924;15.474;2023-04-25T09:44:53;97029.19;;;17.11;38.62
27202;BME280;14717;46.924;15.474;2023-04-25T09:47:19;97023.94;;;17.21;38.99
27202;BME280;14717;46.924;15.474;2023-04-25T09:49:46;97034.50;;;17.28;38.47
27202;BME280;14717;46.924;15.474;2023-04-25T09:52:16;97034.88;;;17.14;37.81
27202;BME280;14717;46.924;15.474;2023-04-25T09:54:42;97032.69;;;17.20;37.44
27202;BME280;14717;46.924;15.474;2023-04-25T09:57:10;97033.13;;;17.49;38.03
27202;BME280;14717;46.924;15.474;2023-04-25T09:59:39;97029.44;;;17.45;37.33
27202;BME280;14717;46.924;15.474;2023-04-25T10:02:07;97023.03;;;17.45;37.78
27202;BME280;14717;46.924;15.474;2023-04-25T10:04:34;97014.56;;;17.56;37.48
27202;BME280;14717;46.924;15.474;2023-04-25T10:07:01;97009.19;;;17.63;37.75
27202;BME280;14717;46.924;15.474;2023-04-25T10:09:29;97002.81;;;17.93;39.19
27202;BME280;14717;46.924;15.474;2023-04-25T10:11:59;97001.47;;;18.03;36.50
27202;BME280;14717;46.924;15.474;2023-04-25T10:14:25;97000.56;;;18.30;39.55
27202;BME280;14717;46.924;15.474;2023-04-25T10:16:51;96993.00;;;18.15;38.44
27202;BME280;14717;46.924;15.474;2023-04-25T10:19:19;96984.84;;;18.40;36.55
27202;BME280;14717;46.924;15.474;2023-04-25T10:22:02;96990.84;;;18.58;35.97
27202;BME280;14717;46.924;15.474;2023-04-25T10:24:28;96995.06;;;18.67;35.54
27202;BME280;14717;46.924;15.474;2023-04-25T10:26:54;96984.44;;;18.57;34.37
27202;BME280;14717;46.924;15.474;2023-04-25T10:29:27;96983.72;;;18.60;35.54
27202;BME280;14717;46.924;15.474;2023-04-25T10:31:53;96965.00;;;18.64;34.05
27202;BME280;14717;46.924;15.474;2023-04-25T10:34:24;96967.97;;;18.71;33.88
27202;BME280;14717;46.924;15.474;2023-04-25T10:36:51;96971.66;;;18.75;34.75
27202;BME280;14717;46.924;15.474;2023-04-25T10:39:25;96971.47;;;18.49;35.48
27202;BME280;14717;46.924;15.474;2023-04-25T10:44:18;96965.56;;;18.35;36.73
27202;BME280;14717;46.924;15.474;2023-04-25T10:46:44;96957.19;;;18.54;37.48
27202;BME280;14717;46.924;15.474;2023-04-25T10:49:10;96954.59;;;18.80;35.79
27202;BME280;14717;46.924;15.474;2023-04-25T10:51:36;96949.09;;;18.68;37.15
27202;BME280;14717;46.924;15.474;2023-04-25T10:54:06;96947.94;;;18.88;38.79
27202;BME280;14717;46.924;15.474;2023-04-25T11:01:37;96936.00;;;18.72;36.47
27202;BME280;14717;46.924;15.474;2023-04-25T11:04:04;96935.06;;;19.02;38.80
27202;BME280;14717;46.924;15.474;2023-04-25T11:06:46;96938.66;;;18.84;37.03
27202;BME280;14717;46.924;15.474;2023-04-25T11:09:17;96931.31;;;18.95;38.70
27202;BME280;14717;46.924;15.474;2023-04-25T11:11:42;96930.13;;;18.77;39.39
27202;BME280;14717;46.924;15.474;2023-04-25T11:14:08;96926.88;;;19.31;38.19
27202;BME280;14717;46.924;15.474;2023-04-25T11:16:33;96923.22;;;19.50;36.95
27202;BME280;14717;46.924;15.474;2023-04-25T11:18:58;96930.84;;;19.30;34.49
27202;BME280;14717;46.924;15.474;2023-04-25T11:21:27;96925.31;;;19.34;36.54
27202;BME280;14717;46.924;15.474;2023-04-25T11:23:56;96916.47;;;19.32;34.53
27202;BME280;14717;46.924;15.474;2023-04-25T11:26:24;96914.44;;;19.51;35.89
27202;BME280;14717;46.924;15.474;2023-04-25T11:28:49;96907.66;;;19.74;35.41
27202;BME280;14717;46.924;15.474;2023-04-25T11:31:15;96916.94;;;19.56;34.25
27202;BME280;14717;46.924;15.474;2023-04-25T11:33:40;96901.16;;;19.48;33.64
27202;BME280;14717;46.924;15.474;2023-04-25T11:36:06;96907.34;;;19.57;34.69
27202;BME280;14717;46.924;15.474;2023-04-25T11:38:31;96900.25;;;19.63;33.43
27202;BME280;14717;46.924;15.474;2023-04-25T11:40:57;96904.41;;;19.72;34.98
27202;BME280;14717;46.924;15.474;2023-04-25T11:43:23;96897.53;;;19.89;33.15
27202;BME280;14717;46.924;15.474;2023-04-25T11:45:49;96898.88;;;19.76;32.58
27202;BME280;14717;46.924;15.474;2023-04-25T11:48:16;96904.78;;;19.71;34.84
27202;BME280;14717;46.924;15.474;2023-04-25T11:50:41;96898.63;;;19.62;34.56
27202;BME280;14717;46.924;15.474;2023-04-25T11:53:07;96891.03;;;19.63;34.43
27202;BME280;14717;46.924;15.474;2023-04-25T11:55:34;96891.56;;;19.71;36.51
27202;BME280;14717;46.924;15.474;2023-04-25T11:58:00;96900.97;;;19.60;35.13
27202;BME280;14717;46.924;15.474;2023-04-25T12:00:26;96891.16;;;19.47;34.36
27202;BME280;14717;46.924;15.474;2023-04-25T12:02:54;96894.88;;;19.32;34.73
27202;BME280;14717;46.924;15.474;2023-04-25T12:05:20;96896.09;;;18.94;35.42
27202;BME280;14717;46.924;15.474;2023-04-25T12:07:48;96896.63;;;18.99;34.32
27202;BME280;14717;46.924;15.474;2023-04-25T12:10:15;96899.22;;;19.08;35.22
27202;BME280;14717;46.924;15.474;2023-04-25T12:12:43;96907.66;;;18.92;36.45
27202;BME280;14717;46.924;15.474;2023-04-25T12:17:39;96924.03;;;18.37;37.40
27202;BME280;14717;46.924;15.474;2023-04-25T12:20:09;96942.78;;;17.57;38.97
27202;BME280;14717;46.924;15.474;2023-04-25T12:22:35;96947.38;;;15.93;44.15
27202;BME280;14717;46.924;15.474;2023-04-25T12:25:02;96958.69;;;15.17;49.54
27202;BME280;14717;46.924;15.474;2023-04-25T12:27:30;96965.06;;;14.45;54.64
27202;BME280;14717;46.924;15.474;2023-04-25T12:29:57;96970.06;;;14.02;55.29
27202;BME280;14717;46.924;15.474;2023-04-25T12:32:22;96966.06;;;13.92;57.29
27202;BME280;14717;46.924;15.474;2023-04-25T12:34:48;96967.50;;;13.69;56.96
27202;BME280;14717;46.924;15.474;2023-04-25T12:37:14;96959.94;;;13.49;57.54
27202;BME280;14717;46.924;15.474;2023-04-25T12:39:39;96959.09;;;13.49;58.99
27202;BME280;14717;46.924;15.474;2023-04-25T12:42:04;96950.25;;;13.55;59.04
27202;BME280;14717;46.924;15.474;2023-04-25T12:44:32;96945.31;;;13.69;60.93
27202;BME280;14717;46.924;15.474;2023-04-25T12:46:58;96942.63;;;13.81;59.46
27202;BME280;14717;46.924;15.474;2023-04-25T12:49:24;96939.03;;;13.80;60.02
27202;BME280;14717;46.924;15.474;2023-04-25T12:51:50;96937.19;;;14.13;58.54
27202;BME280;14717;46.924;15.474;2023-04-25T12:54:16;96938.75;;;14.22;58.78